This is the latest recevied weather packets stored in our database for station/object KI7MOQ. If no packets are shown the sender has not sent any weather packets the latest 10 day(s).
| Time | Temp. | Humidity | Pressure | Rain* | Wind** | Luminosity | Snow |
|---|---|---|---|---|---|---|---|
| 1778094548 | 16.11° C | 77% | 1023.6 hPa | 0 mm | - | 78 W/m² | - |
| 1778094244 | 15.56° C | 77% | 1023.6 hPa | 0 mm | - | 86 W/m² | - |
| 1778093941 | 15.56° C | 78% | 1023.6 hPa | 0 mm | - | 81 W/m² | - |
| 1778093638 | 15.56° C | 77% | 1023.6 hPa | 0 mm | - | 83 W/m² | - |
| 1778093335 | 15.56° C | 78% | 1023.5 hPa | 0 mm | - | 90 W/m² | - |
| 1778093032 | 15.56° C | 78% | 1023.6 hPa | 0 mm | - | 86 W/m² | - |
| 1778092730 | 15.56° C | 79% | 1023.5 hPa | 0 mm | - | 83 W/m² | - |
| 1778092424 | 15.56° C | 78% | 1023.8 hPa | 0 mm | - | 80 W/m² | - |
| 1778092122 | 15.56° C | 78% | 1023.6 hPa | 0 mm | - | 81 W/m² | - |
| 1778091819 | 15° C | 79% | 1023.4 hPa | 0 mm | - | 99 W/m² | - |
| 1778091517 | 15° C | 79% | 1023.5 hPa | 0 mm | - | 98 W/m² | - |
| 1778091215 | 15° C | 78% | 1023.6 hPa | 0 mm | - | 81 W/m² | - |
| 1778090911 | 15° C | 79% | 1023.5 hPa | 0 mm | - | 78 W/m² | - |
| 1778090607 | 15° C | 79% | 1023.7 hPa | 0 mm | - | 77 W/m² | - |
| 1778090303 | 15° C | 79% | 1023.5 hPa | 0 mm | - | 86 W/m² | - |
| 1778090001 | 15° C | 78% | 1023.6 hPa | 0 mm | - | 77 W/m² | - |
| 1778089698 | 15° C | 79% | 1023.5 hPa | 0 mm | - | 83 W/m² | - |
| 1778089395 | 15° C | 79% | 1023.4 hPa | 0 mm | - | 73 W/m² | - |
| 1778089092 | 14.44° C | 80% | 1023.3 hPa | 0 mm | - | 80 W/m² | - |
| 1778088789 | 14.44° C | 80% | 1023.5 hPa | 0 mm | - | 68 W/m² | - |
| 1778088486 | 14.44° C | 80% | 1023.4 hPa | 0 mm | - | 69 W/m² | - |
| 1778088183 | 15° C | 79% | 1023.2 hPa | 0 mm | - | 83 W/m² | - |
| 1778087881 | 14.44° C | 80% | 1023.2 hPa | 0 mm | - | 83 W/m² | - |
| 1778087577 | 14.44° C | 80% | 1023.2 hPa | 0 mm | - | 90 W/m² | - |
| 1778087275 | 14.44° C | 80% | 1023.1 hPa | 0 mm | - | 81 W/m² | - |
* Rain latest hour (hover to see other rain measurements)
** Current wind speed in m/s (hover to see current wind gust speed)